createdAt,value
2018-05-10T00:01:17.806Z,2.50
2018-05-10T00:03:44.349Z,2.30
2018-05-10T00:06:11.430Z,2.10
2018-05-10T00:08:37.785Z,1.73
2018-05-10T00:11:04.268Z,1.43
2018-05-10T00:13:31.365Z,1.60
2018-05-10T00:15:57.653Z,3.30
2018-05-10T00:18:24.000Z,4.33
2018-05-10T00:20:50.536Z,3.40
2018-05-10T00:23:17.171Z,3.33
2018-05-10T00:25:43.576Z,4.40
2018-05-10T00:28:10.004Z,3.10
2018-05-10T00:30:36.565Z,3.70
2018-05-10T00:33:06.789Z,3.40
2018-05-10T00:35:33.977Z,2.60
2018-05-10T00:38:00.334Z,3.90
2018-05-10T00:40:26.729Z,2.80
2018-05-10T00:42:53.436Z,2.57
2018-05-10T00:45:19.772Z,2.43
2018-05-10T00:47:46.851Z,3.20
2018-05-10T00:50:13.250Z,1.70
2018-05-10T00:52:39.614Z,1.80
2018-05-10T00:55:06.765Z,1.53
2018-05-10T00:57:33.084Z,1.13
2018-05-10T00:59:59.464Z,1.07
2018-05-10T01:02:25.859Z,0.97
2018-05-10T01:04:52.979Z,1.20
2018-05-10T01:07:19.314Z,1.07
2018-05-10T01:09:45.785Z,1.20
2018-05-10T01:12:12.188Z,1.23
2018-05-10T01:14:38.700Z,1.53
2018-05-10T01:17:05.782Z,1.23
2018-05-10T01:19:36.709Z,1.13
2018-05-10T01:22:03.307Z,1.07
2018-05-10T01:24:29.713Z,1.70
2018-05-10T01:26:56.881Z,1.97
2018-05-10T01:29:23.251Z,1.50
2018-05-10T01:31:49.863Z,1.53
2018-05-10T01:34:16.709Z,1.80
2018-05-10T01:36:43.895Z,2.30
2018-05-10T01:39:10.585Z,1.77
2018-05-10T01:41:37.228Z,1.60
2018-05-10T01:44:03.627Z,1.50
2018-05-10T01:46:30.050Z,2.17
2018-05-10T01:48:57.442Z,1.40
2018-05-10T01:51:24.106Z,1.50
2018-05-10T01:53:50.437Z,1.77
2018-05-10T01:56:17.689Z,2.50
2018-05-10T01:58:44.427Z,1.70
2018-05-10T02:01:11.013Z,1.60
2018-05-10T02:03:37.451Z,1.80
2018-05-10T02:06:04.037Z,1.40
2018-05-10T02:08:30.449Z,1.93
2018-05-10T02:10:57.112Z,1.63
2018-05-10T02:13:23.516Z,1.70
2018-05-10T02:15:49.902Z,1.80
2018-05-10T02:18:16.236Z,1.77
2018-05-10T02:20:42.649Z,1.20
2018-05-10T02:23:08.985Z,1.50
2018-05-10T02:25:35.825Z,1.37
2018-05-10T02:28:02.176Z,1.23
2018-05-10T02:30:29.267Z,1.47
2018-05-10T02:32:55.602Z,1.70
2018-05-10T02:35:22.009Z,2.13
2018-05-10T02:37:48.930Z,2.77
2018-05-10T02:40:15.297Z,1.47
2018-05-10T02:42:41.603Z,1.50
2018-05-10T02:45:07.986Z,1.50
2018-05-10T02:47:35.035Z,1.47
2018-05-10T02:50:01.503Z,1.47
2018-05-10T02:52:27.829Z,1.40
2018-05-10T02:54:54.185Z,1.90
2018-05-10T02:57:20.523Z,1.37
2018-05-10T02:59:47.671Z,1.40
2018-05-10T03:02:14.040Z,1.77
2018-05-10T03:04:40.384Z,1.83
2018-05-10T03:07:06.909Z,1.10
2018-05-10T03:09:33.274Z,2.00
2018-05-10T03:11:59.683Z,1.40
2018-05-10T03:14:26.088Z,3.13
2018-05-10T03:16:52.430Z,1.60
2018-05-10T03:19:18.768Z,1.53
2018-05-10T03:21:45.147Z,1.50
2018-05-10T03:24:11.465Z,2.30
2018-05-10T03:26:37.822Z,2.60
2018-05-10T03:29:04.965Z,1.80
2018-05-10T03:31:31.377Z,1.40
2018-05-10T03:33:57.751Z,1.77
2018-05-10T03:36:24.884Z,2.10
2018-05-10T03:38:51.221Z,1.30
2018-05-10T03:41:17.880Z,1.80
2018-05-10T03:43:44.208Z,1.17
2018-05-10T03:46:11.321Z,1.37
2018-05-10T03:48:37.693Z,2.20
2018-05-10T03:51:04.785Z,1.80
2018-05-10T03:53:31.865Z,1.80
2018-05-10T03:55:58.209Z,1.70
2018-05-10T03:58:24.580Z,2.70
2018-05-10T04:00:51.637Z,3.37
2018-05-10T04:03:31.345Z,4.63
2018-05-10T04:06:10.085Z,6.33
2018-05-10T04:08:48.756Z,6.33
2018-05-10T04:11:21.238Z,5.80
2018-05-10T04:13:48.524Z,4.40
2018-05-10T04:16:14.842Z,4.40
2018-05-10T04:18:41.156Z,5.33
2018-05-10T04:21:07.536Z,6.07
2018-05-10T04:23:34.641Z,7.17
2018-05-10T04:26:01.087Z,4.30
2018-05-10T04:28:27.418Z,5.20
2018-05-10T04:30:53.785Z,7.47
2018-05-10T04:33:20.188Z,5.10
2018-05-10T04:35:46.544Z,4.50
2018-05-10T04:38:13.593Z,3.50
2018-05-10T04:40:40.716Z,2.03
2018-05-10T04:43:07.861Z,1.83
2018-05-10T04:45:34.585Z,2.27
2018-05-10T04:48:01.134Z,2.40
2018-05-10T04:50:27.457Z,4.63
2018-05-10T04:52:54.112Z,6.33
2018-05-10T04:55:20.506Z,4.53
2018-05-10T04:57:47.833Z,6.30
2018-05-10T05:00:14.196Z,6.90
2018-05-10T05:02:40.665Z,7.27
2018-05-10T05:05:07.024Z,6.53
2018-05-10T05:07:33.364Z,5.07
2018-05-10T05:10:00.476Z,5.53
2018-05-10T05:12:26.796Z,5.17
2018-05-10T05:14:53.161Z,4.83
2018-05-10T05:17:19.514Z,4.47
2018-05-10T05:19:45.952Z,7.40
2018-05-10T05:22:13.094Z,7.37
2018-05-10T05:24:39.518Z,7.10
2018-05-10T05:27:06.668Z,7.40
2018-05-10T05:29:33.062Z,7.23
2018-05-10T05:31:59.536Z,6.90
2018-05-10T05:34:26.048Z,6.80
2018-05-10T05:36:52.474Z,6.50
2018-05-10T05:39:18.853Z,6.47
2018-05-10T05:41:45.239Z,6.47
2018-05-10T05:44:11.605Z,6.73
2018-05-10T05:46:38.726Z,6.73
2018-05-10T05:49:05.064Z,6.13
2018-05-10T05:51:32.001Z,6.33
2018-05-10T05:53:58.517Z,6.50
2018-05-10T05:56:25.619Z,4.90
2018-05-10T05:58:52.021Z,5.27
2018-05-10T06:01:18.502Z,4.93
2018-05-10T06:03:44.833Z,5.23
2018-05-10T06:06:12.022Z,5.43
2018-05-10T06:08:38.458Z,5.73
2018-05-10T06:11:04.999Z,4.87
2018-05-10T06:13:31.685Z,4.90
2018-05-10T06:15:58.250Z,5.47
2018-05-10T06:18:24.573Z,4.13
2018-05-10T06:20:51.722Z,4.47
2018-05-10T06:23:19.315Z,3.33
2018-05-10T06:25:45.694Z,4.20
2018-05-10T06:28:12.256Z,5.10
2018-05-10T06:30:38.603Z,4.60
2018-05-10T06:33:05.002Z,4.37
2018-05-10T06:35:31.478Z,4.97
2018-05-10T06:37:58.898Z,4.73
2018-05-10T06:40:29.246Z,4.03
2018-05-10T06:42:56.522Z,4.33
2018-05-10T06:45:23.322Z,5.20
2018-05-10T06:47:49.840Z,4.10
2018-05-10T06:53:12.998Z,4.90
2018-05-10T06:55:40.583Z,4.90
2018-05-10T06:58:09.068Z,4.63
2018-05-10T07:00:35.423Z,5.27
2018-05-10T07:03:01.782Z,4.53
2018-05-10T07:05:29.276Z,4.83
2018-05-10T07:07:55.971Z,4.00
2018-05-10T07:10:30.375Z,5.33
2018-05-10T07:12:57.976Z,4.33
2018-05-10T07:15:25.302Z,4.57
2018-05-10T07:17:52.870Z,4.07
2018-05-10T07:20:19.445Z,4.10
2018-05-10T07:22:46.166Z,4.93
2018-05-10T07:25:13.259Z,4.67
2018-05-10T07:27:39.828Z,4.17
2018-05-10T07:30:07.179Z,4.20
2018-05-10T07:32:37.607Z,4.20
2018-05-10T07:35:04.915Z,4.43
2018-05-10T07:37:31.530Z,4.67
2018-05-10T07:39:58.002Z,4.10
2018-05-10T07:42:24.365Z,3.80
2018-05-10T07:44:51.218Z,3.70
2018-05-10T07:47:17.826Z,4.20
2018-05-10T07:49:44.210Z,3.57
2018-05-10T07:52:10.551Z,3.53
2018-05-10T07:54:37.114Z,4.00
2018-05-10T07:57:03.570Z,3.00
2018-05-10T07:59:30.816Z,4.30
2018-05-10T08:01:57.181Z,3.00
2018-05-10T08:04:23.781Z,4.20
2018-05-10T08:06:50.202Z,3.63
2018-05-10T08:09:16.609Z,3.30
2018-05-10T08:11:43.989Z,2.77
2018-05-10T08:14:10.454Z,3.57
2018-05-10T08:16:36.888Z,3.10
2018-05-10T08:19:03.308Z,3.03
2018-05-10T08:21:29.705Z,3.60
2018-05-10T08:23:56.127Z,3.40
2018-05-10T08:26:26.344Z,3.70
2018-05-10T08:28:52.786Z,3.33
2018-05-10T08:31:19.187Z,3.47
2018-05-10T08:33:45.581Z,2.90
2018-05-10T08:36:12.043Z,3.00
2018-05-10T08:38:38.398Z,3.40
2018-05-10T08:41:05.512Z,3.30
2018-05-10T08:43:31.957Z,3.87
2018-05-10T08:45:58.351Z,3.10
2018-05-10T08:48:24.771Z,2.80
2018-05-10T08:50:51.156Z,2.63
2018-05-10T08:53:17.625Z,2.33
2018-05-10T08:55:45.224Z,2.10
2018-05-10T08:58:12.543Z,2.27
2018-05-10T09:00:40.011Z,2.53
2018-05-10T09:03:06.415Z,2.73
2018-05-10T09:05:32.829Z,3.40
2018-05-10T09:07:59.362Z,3.40
2018-05-10T09:10:25.792Z,3.60
2018-05-10T09:12:52.168Z,2.67
2018-05-10T09:15:18.885Z,2.97
2018-05-10T09:17:45.253Z,3.50
2018-05-10T09:20:11.687Z,3.30
2018-05-10T09:22:38.837Z,2.70
2018-05-10T09:25:05.245Z,3.10
2018-05-10T09:27:31.633Z,2.77
2018-05-10T09:29:57.994Z,2.80
2018-05-10T09:32:24.610Z,2.53
2018-05-10T09:34:51.005Z,3.20
2018-05-10T09:37:17.377Z,2.87
2018-05-10T09:39:43.785Z,4.77
2018-05-10T09:42:10.163Z,5.80
2018-05-10T09:44:36.549Z,4.37
2018-05-10T09:47:02.958Z,4.73
2018-05-10T09:49:30.122Z,4.43
2018-05-10T09:51:56.505Z,5.27
2018-05-10T09:54:22.934Z,5.03
2018-05-10T09:56:49.404Z,5.20
2018-05-10T09:59:19.801Z,4.97
2018-05-10T10:01:46.268Z,4.53
2018-05-10T10:04:13.006Z,4.67
2018-05-10T10:06:40.359Z,5.07
2018-05-10T10:09:07.037Z,5.10
2018-05-10T10:11:33.668Z,5.30
2018-05-10T10:14:01.045Z,5.50
2018-05-10T10:16:27.666Z,5.30
2018-05-10T10:18:54.177Z,5.57
2018-05-10T10:21:20.638Z,5.43
2018-05-10T10:23:47.198Z,5.40
2018-05-10T10:26:13.875Z,4.63
2018-05-10T10:28:40.336Z,5.63
2018-05-10T10:31:06.711Z,5.40
2018-05-10T10:33:33.318Z,6.17
2018-05-10T10:36:00.597Z,4.63
2018-05-10T10:38:27.001Z,5.77
2018-05-10T10:40:53.376Z,5.07
2018-05-10T10:43:19.952Z,5.27
2018-05-10T10:45:48.951Z,5.90
2018-05-10T10:48:15.588Z,5.00
2018-05-10T10:50:42.695Z,4.30
2018-05-10T10:53:09.493Z,3.37
2018-05-10T10:55:36.018Z,4.40
2018-05-10T10:58:02.598Z,4.37
2018-05-10T11:00:29.445Z,4.67
2018-05-10T11:02:55.825Z,5.40
2018-05-10T11:05:23.101Z,4.47
2018-05-10T11:07:49.559Z,4.83
2018-05-10T11:10:16.104Z,4.00
2018-05-10T11:12:42.538Z,5.03
2018-05-10T11:15:08.940Z,5.13
2018-05-10T11:17:35.409Z,6.53
2018-05-10T11:20:01.816Z,5.60
2018-05-10T11:22:28.589Z,6.10
2018-05-10T11:24:55.149Z,4.47
2018-05-10T11:27:22.060Z,6.03
2018-05-10T11:29:48.719Z,7.20
2018-05-10T11:32:15.240Z,7.67
2018-05-10T11:34:42.524Z,7.20
2018-05-10T11:37:08.910Z,5.87
2018-05-10T11:39:35.358Z,6.23
2018-05-10T11:42:01.927Z,5.57
2018-05-10T11:44:28.343Z,5.60
2018-05-10T11:46:54.691Z,6.83
2018-05-10T11:49:21.098Z,7.00
2018-05-10T11:51:47.909Z,6.20
2018-05-10T11:54:14.352Z,4.33
2018-05-10T11:56:40.804Z,5.37
2018-05-10T11:59:07.444Z,5.67
2018-05-10T12:01:33.869Z,4.43
2018-05-10T12:04:01.341Z,4.97
2018-05-10T12:06:28.805Z,5.17
2018-05-10T12:08:55.348Z,4.83
2018-05-10T12:11:22.499Z,4.23
2018-05-10T12:13:48.945Z,4.37
2018-05-10T12:16:15.397Z,3.40
2018-05-10T12:18:41.795Z,3.07
2018-05-10T12:21:08.181Z,3.03
2018-05-10T12:23:35.682Z,3.50
2018-05-10T12:26:02.375Z,4.17
2018-05-10T12:28:29.601Z,3.27
2018-05-10T12:30:56.008Z,2.80
2018-05-10T12:33:22.757Z,2.70
2018-05-10T12:35:49.708Z,2.97
2018-05-10T12:38:16.054Z,2.13
2018-05-10T12:40:42.465Z,2.70
2018-05-10T12:43:09.090Z,2.20
2018-05-10T12:45:35.636Z,2.40
2018-05-10T12:48:02.307Z,2.50
2018-05-10T12:50:32.702Z,2.20
2018-05-10T12:52:59.140Z,2.30
2018-05-10T12:55:25.724Z,2.90
2018-05-10T12:57:52.411Z,2.57
2018-05-10T13:00:19.133Z,2.50
2018-05-10T13:02:45.453Z,2.70
2018-05-10T13:05:11.992Z,2.80
2018-05-10T13:07:39.317Z,2.60
2018-05-10T13:10:05.752Z,3.00
2018-05-10T13:12:32.191Z,3.50
2018-05-10T13:15:02.568Z,3.10
2018-05-10T13:17:29.072Z,3.30
2018-05-10T13:19:56.513Z,2.90
2018-05-10T13:22:23.647Z,3.47
2018-05-10T13:24:50.012Z,3.47
2018-05-10T13:27:17.464Z,2.83
2018-05-10T13:29:43.914Z,2.70
2018-05-10T13:32:11.247Z,2.43
2018-05-10T13:34:37.675Z,2.80
2018-05-10T13:37:04.061Z,2.50
2018-05-10T13:39:30.479Z,2.30
2018-05-10T13:41:56.914Z,1.80
2018-05-10T13:44:23.344Z,2.10
2018-05-10T13:46:49.830Z,1.80
2018-05-10T13:49:16.188Z,1.90
2018-05-10T13:51:42.613Z,1.60
2018-05-10T13:54:13.951Z,2.20
2018-05-10T13:56:40.388Z,1.77
2018-05-10T13:59:06.822Z,1.97
2018-05-10T14:01:33.428Z,1.70
2018-05-10T14:03:59.793Z,1.43
2018-05-10T14:06:26.198Z,1.83
2018-05-10T14:08:52.590Z,1.90
2018-05-10T14:11:19.037Z,1.87
2018-05-10T14:13:45.397Z,1.53
2018-05-10T14:16:11.892Z,1.87
2018-05-10T14:18:38.293Z,1.50
2018-05-10T14:21:04.736Z,1.63
2018-05-10T14:23:31.142Z,1.70
2018-05-10T14:25:57.602Z,1.23
2018-05-10T14:28:23.994Z,1.07
2018-05-10T14:30:51.233Z,1.23
2018-05-10T14:33:17.771Z,1.23
2018-05-10T14:35:44.185Z,1.27
2018-05-10T14:38:14.448Z,1.70
2018-05-10T14:40:40.836Z,1.83
2018-05-10T14:43:07.234Z,1.97
2018-05-10T14:45:33.635Z,1.57
2018-05-10T14:48:00.097Z,1.50
2018-05-10T14:50:27.310Z,1.43
2018-05-10T14:52:53.698Z,2.10
2018-05-10T14:55:20.157Z,2.30
2018-05-10T14:57:46.541Z,2.83
2018-05-10T15:00:16.918Z,3.30
2018-05-10T15:02:43.353Z,3.33
2018-05-10T15:05:10.281Z,4.00
2018-05-10T15:07:36.769Z,6.03
2018-05-10T15:10:03.321Z,6.73
2018-05-10T15:12:29.773Z,7.50
2018-05-10T15:14:56.925Z,7.60
2018-05-10T15:17:23.314Z,7.80
2018-05-10T15:19:49.702Z,8.13
2018-05-10T15:22:16.822Z,8.57
2018-05-10T15:24:43.239Z,8.47
2018-05-10T15:27:09.639Z,8.80
2018-05-10T15:29:36.957Z,9.90
2018-05-10T15:32:03.489Z,10.93
2018-05-10T15:34:29.945Z,9.53
2018-05-10T15:36:57.026Z,9.20
2018-05-10T15:39:23.368Z,8.93
2018-05-10T15:41:49.794Z,8.63
2018-05-10T15:44:16.157Z,8.37
2018-05-10T15:46:42.697Z,6.83
2018-05-10T15:49:09.141Z,6.73
2018-05-10T15:51:36.582Z,5.00
2018-05-10T15:54:03.140Z,3.27
2018-05-10T15:56:29.540Z,2.80
2018-05-10T15:58:55.880Z,2.10
2018-05-10T16:01:23.208Z,2.40
2018-05-10T16:03:49.581Z,2.67
2018-05-10T16:06:15.965Z,2.00
2018-05-10T16:08:43.012Z,2.13
2018-05-10T16:11:09.441Z,1.80
2018-05-10T16:13:36.158Z,1.47
2018-05-10T16:16:02.536Z,1.40
2018-05-10T16:18:28.883Z,1.87
2018-05-10T16:20:55.256Z,1.30
2018-05-10T16:23:22.383Z,1.43
2018-05-10T16:25:48.730Z,1.40
2018-05-10T16:28:15.129Z,1.57
2018-05-10T16:30:41.566Z,0.90
2018-05-10T16:33:07.992Z,0.70
2018-05-10T16:35:34.349Z,0.83
2018-05-10T16:38:00.673Z,0.93
2018-05-10T16:40:27.007Z,0.70
2018-05-10T16:42:53.349Z,0.80
2018-05-10T16:45:20.489Z,1.07
2018-05-10T16:47:46.836Z,1.20
2018-05-10T16:50:13.182Z,1.20
2018-05-10T16:52:39.479Z,0.70
2018-05-10T16:55:05.831Z,1.00
2018-05-10T16:57:32.224Z,1.00
2018-05-10T16:59:59.301Z,1.30
2018-05-10T17:02:25.608Z,1.37
2018-05-10T17:04:52.001Z,1.00
2018-05-10T17:07:19.071Z,0.90
2018-05-10T17:09:46.221Z,1.20
2018-05-10T17:12:12.590Z,1.50
2018-05-10T17:14:38.937Z,2.30
2018-05-10T17:17:05.216Z,2.07
2018-05-10T17:19:32.628Z,2.43
2018-05-10T17:21:59.006Z,1.70
2018-05-10T17:24:25.371Z,1.97
2018-05-10T17:26:51.733Z,3.13
2018-05-10T17:29:18.068Z,2.80
2018-05-10T17:31:44.392Z,3.47
2018-05-10T17:34:10.709Z,3.07
2018-05-10T17:36:37.057Z,4.87
2018-05-10T17:39:03.427Z,4.83
2018-05-10T17:41:29.766Z,3.80
2018-05-10T17:43:56.832Z,4.80
2018-05-10T17:46:23.205Z,5.73
2018-05-10T17:48:49.541Z,5.30
2018-05-10T17:51:15.864Z,5.10
2018-05-10T17:53:42.187Z,5.30
2018-05-10T17:56:08.525Z,5.73
2018-05-10T17:58:34.860Z,6.50
2018-05-10T18:01:01.588Z,5.57
2018-05-10T18:03:27.888Z,5.20
2018-05-10T18:05:54.292Z,5.27
2018-05-10T18:08:20.613Z,5.83
2018-05-10T18:10:47.711Z,5.70
2018-05-10T18:13:14.809Z,5.67
2018-05-10T18:15:41.165Z,5.63
2018-05-10T18:18:07.497Z,5.43
2018-05-10T18:20:34.617Z,6.70
2018-05-10T18:23:00.956Z,6.33
2018-05-10T18:25:27.331Z,6.20
2018-05-10T18:27:53.699Z,6.83
2018-05-10T18:30:20.033Z,5.27
2018-05-10T18:32:46.411Z,5.20
2018-05-10T18:35:13.500Z,6.17
2018-05-10T18:37:39.865Z,6.87
2018-05-10T18:40:06.206Z,5.80
2018-05-10T18:42:32.573Z,5.27
2018-05-10T18:44:59.619Z,6.50
2018-05-10T18:47:26.720Z,6.80
2018-05-10T18:49:53.029Z,8.23
2018-05-10T18:52:19.473Z,6.97
2018-05-10T18:54:45.866Z,7.73
2018-05-10T18:57:12.974Z,7.23
2018-05-10T18:59:39.379Z,9.40
2018-05-10T19:02:05.694Z,7.80
2018-05-10T19:04:32.058Z,7.97
2018-05-10T19:06:58.389Z,8.10
2018-05-10T19:09:24.730Z,8.93
2018-05-10T19:11:51.088Z,8.00
2018-05-10T19:14:17.520Z,8.97
2018-05-10T19:16:43.903Z,7.70
2018-05-10T19:19:12.249Z,6.97
2018-05-10T19:21:38.620Z,7.43
2018-05-10T19:24:04.961Z,6.80
2018-05-10T19:26:31.406Z,7.43
2018-05-10T19:28:58.428Z,8.07
2018-05-10T19:31:24.811Z,7.70
2018-05-10T19:33:51.898Z,8.30
2018-05-10T19:36:18.268Z,7.13
2018-05-10T19:38:45.603Z,8.30
2018-05-10T19:41:12.012Z,7.93
2018-05-10T19:43:38.719Z,6.77
2018-05-10T19:46:05.044Z,6.43
2018-05-10T19:48:31.376Z,6.73
2018-05-10T19:50:57.790Z,8.40
2018-05-10T19:53:24.149Z,6.07
2018-05-10T19:55:50.480Z,7.40
2018-05-10T19:58:16.826Z,6.40
2018-05-10T20:00:43.202Z,4.13
2018-05-10T20:03:09.511Z,7.50
2018-05-10T20:05:36.589Z,7.83
2018-05-10T20:08:02.966Z,7.33
2018-05-10T20:10:29.318Z,5.90
2018-05-10T20:12:55.660Z,4.53
2018-05-10T20:15:22.034Z,6.90
2018-05-10T20:17:48.349Z,6.67
2018-05-10T20:20:14.711Z,6.10
2018-05-10T20:22:41.033Z,5.90
2018-05-10T20:25:07.482Z,6.33
2018-05-10T20:27:33.814Z,5.37
2018-05-10T20:30:00.153Z,5.77
2018-05-10T20:32:26.568Z,6.37
2018-05-10T20:34:54.501Z,5.03
2018-05-10T20:37:20.873Z,3.77
2018-05-10T20:39:47.247Z,7.03
2018-05-10T20:42:14.678Z,5.83
2018-05-10T20:44:41.096Z,6.60
2018-05-10T20:47:07.400Z,5.83
2018-05-10T20:49:33.740Z,6.73
2018-05-10T20:52:00.082Z,7.33
2018-05-10T20:54:27.139Z,5.80
2018-05-10T20:56:53.490Z,6.63
2018-05-10T20:59:19.849Z,6.20
2018-05-10T21:01:47.681Z,6.93
2018-05-10T21:04:14.072Z,7.17
2018-05-10T21:06:41.153Z,5.83
2018-05-10T21:09:07.534Z,7.10
2018-05-10T21:11:34.642Z,5.77
2018-05-10T21:14:00.997Z,5.80
2018-05-10T21:16:28.178Z,5.30
2018-05-10T21:18:54.439Z,5.90
2018-05-10T21:21:20.836Z,6.63
2018-05-10T21:23:47.173Z,6.10
2018-05-10T21:26:13.557Z,4.30
2018-05-10T21:28:56.774Z,3.70
2018-05-10T21:31:23.184Z,4.73
2018-05-10T21:33:49.582Z,5.13
2018-05-10T21:36:15.870Z,5.37
2018-05-10T21:38:42.281Z,5.83
2018-05-10T21:41:09.366Z,5.13
2018-05-10T21:43:35.715Z,6.83
2018-05-10T21:46:02.061Z,5.53
2018-05-10T21:48:28.421Z,4.77
2018-05-10T21:50:54.788Z,5.87
2018-05-10T21:53:26.059Z,6.70
2018-05-10T21:55:52.438Z,6.70
2018-05-10T21:58:18.829Z,5.53
2018-05-10T22:00:45.938Z,6.07
2018-05-10T22:03:12.238Z,7.17
2018-05-10T22:05:39.407Z,5.47
2018-05-10T22:08:05.769Z,6.67
2018-05-10T22:10:32.109Z,5.37
2018-05-10T22:12:58.473Z,6.10
2018-05-10T22:15:24.828Z,6.07
2018-05-10T22:17:51.235Z,5.30
2018-05-10T22:20:18.327Z,6.77
2018-05-10T22:22:44.741Z,7.20
2018-05-10T22:25:11.049Z,5.33
2018-05-10T22:27:38.215Z,7.50
2018-05-10T22:30:05.383Z,6.83
2018-05-10T22:32:31.653Z,6.43
2018-05-10T22:34:57.983Z,5.60
2018-05-10T22:37:24.396Z,6.93
2018-05-10T22:39:50.797Z,5.90
2018-05-10T22:42:17.860Z,5.63
2018-05-10T22:44:44.980Z,7.33
2018-05-10T22:47:11.450Z,6.63
2018-05-10T22:49:37.828Z,5.00
2018-05-10T22:52:04.416Z,4.50
2018-05-10T22:54:30.803Z,6.13
2018-05-10T22:56:57.380Z,4.83
2018-05-10T22:59:23.744Z,5.83
2018-05-10T23:01:50.126Z,6.13
2018-05-10T23:04:17.198Z,5.60
2018-05-10T23:06:44.293Z,4.90
2018-05-10T23:09:10.602Z,5.73
2018-05-10T23:11:36.916Z,5.10
2018-05-10T23:14:03.295Z,4.43
2018-05-10T23:16:29.633Z,4.13
2018-05-10T23:18:55.967Z,4.37
2018-05-10T23:21:22.330Z,4.30
2018-05-10T23:23:49.540Z,4.77
2018-05-10T23:26:15.846Z,5.60
2018-05-10T23:28:42.177Z,4.77
2018-05-10T23:31:11.549Z,3.40
2018-05-10T23:33:39.004Z,3.70
2018-05-10T23:36:05.413Z,4.53
2018-05-10T23:38:31.730Z,4.87
2018-05-10T23:40:58.109Z,5.20
2018-05-10T23:43:25.154Z,5.63
2018-05-10T23:45:52.221Z,3.40
2018-05-10T23:48:18.532Z,3.03
2018-05-10T23:50:45.597Z,3.10
2018-05-10T23:53:11.965Z,3.47
2018-05-10T23:55:38.336Z,3.70
2018-05-10T23:58:04.930Z,3.00
